Time;durP1;ratioP1;P1;durP2;ratioP2;P2;SDS_P1;SDS_P2;PMS_P1;PMS_P2;Temp;Humidity;BMP_temperature;BMP_pressure;BME280_temperature;BME280_humidity;BME280_pressure;Samples;Min_cycle;Max_cycle;Signal;HPM_P1;HPM_P2
2023/07/14 00:00:34;;;;;;;;;;;;;;;20.74;48.72;101694.00;4836079;29;115434;-73
2023/07/14 00:03:03;;;;;;;;;;;;;;;20.74;48.79;101701.22;4837190;29;115114;-73
2023/07/14 00:05:32;;;;;;;;;;;;;;;20.74;48.83;101696.69;4836274;29;124354;-73
2023/07/14 00:07:59;;;;;;;;;;;;;;;20.74;48.98;101694.00;4835692;29;124378;-73
2023/07/14 00:10:31;;;;;;;;;;;;;;;20.74;49.03;101694.00;4836116;29;115027;-73
2023/07/14 00:13:03;;;;;;;;;;;;;;;20.75;49.03;101695.69;4835518;29;112908;-73
2023/07/14 00:15:31;;;;;;;;;;;;;;;20.74;49.13;101688.59;4836345;29;124127;-73
2023/07/14 00:18:01;;;;;;;;;;;;;;;20.74;48.86;101683.22;4836621;29;124772;-73
2023/07/14 00:20:29;;;;;;;;;;;;;;;20.73;48.99;101688.72;4835065;29;116276;-73
2023/07/14 00:22:56;;;;;;;;;;;;;;;20.71;49.01;101686.13;4835947;29;113643;-73
2023/07/14 00:25:24;;;;;;;;;;;;;;;20.71;49.10;101688.81;4836203;29;124430;-73
2023/07/14 00:27:53;;;;;;;;;;;;;;;20.70;48.94;101691.63;4832632;29;123977;-73
2023/07/14 00:30:21;;;;;;;;;;;;;;;20.68;48.99;101683.69;4835969;29;114653;-73
2023/07/14 00:32:49;;;;;;;;;;;;;;;20.65;48.96;101683.91;4835387;29;114067;-73
2023/07/14 00:35:20;;;;;;;;;;;;;;;20.64;48.97;101682.16;4850417;28;123289;-73
2023/07/14 00:37:48;;;;;;;;;;;;;;;20.61;49.00;101679.72;4850645;28;125185;-73
2023/07/14 00:40:17;;;;;;;;;;;;;;;20.58;49.23;101671.84;4849008;28;113361;-73
2023/07/14 00:42:46;;;;;;;;;;;;;;;20.55;49.03;101667.56;4849008;28;113695;-74
2023/07/14 00:45:16;;;;;;;;;;;;;;;20.54;48.92;101675.72;4836037;29;124392;-73
2023/07/14 00:47:46;;;;;;;;;;;;;;;20.49;48.98;101675.22;4850387;28;123904;-72
2023/07/14 00:50:21;;;;;;;;;;;;;;;20.45;48.85;101673.72;4848448;28;115878;-73
2023/07/14 00:52:49;;;;;;;;;;;;;;;20.40;48.99;101676.75;4848348;28;114800;-74
2023/07/14 00:55:29;;;;;;;;;;;;;;;20.35;49.16;101677.09;4836615;29;124616;-73
2023/07/14 00:57:56;;;;;;;;;;;;;;;20.32;49.09;101674.59;4848010;29;123381;-73
2023/07/14 01:00:30;;;;;;;;;;;;;;;20.30;49.11;101675.69;4834328;29;113446;-73
2023/07/14 01:02:58;;;;;;;;;;;;;;;20.26;49.17;101671.53;4833893;29;113983;-73
2023/07/14 01:05:27;;;;;;;;;;;;;;;20.24;49.35;101668.94;4849690;28;124939;-73
2023/07/14 01:07:55;;;;;;;;;;;;;;;20.21;49.30;101674.53;4834750;29;123998;-73
2023/07/14 01:10:25;;;;;;;;;;;;;;;20.19;49.26;101671.09;4835447;29;115166;-73
2023/07/14 01:12:55;;;;;;;;;;;;;;;20.17;49.24;101673.91;4850080;28;114091;-73
2023/07/14 01:15:23;;;;;;;;;;;;;;;20.15;49.21;101674.97;4850137;28;123393;-73
2023/07/14 01:17:51;;;;;;;;;;;;;;;20.12;49.36;101669.84;4835492;29;124252;-73
2023/07/14 01:20:18;;;;;;;;;;;;;;;20.10;49.28;101671.75;4834998;29;115100;-73
2023/07/14 01:22:48;;;;;;;;;;;;;;;20.08;49.25;101679.06;4835608;29;113663;-73
2023/07/14 01:25:18;;;;;;;;;;;;;;;20.04;49.09;101662.28;4832672;29;124178;-73
2023/07/14 01:27:46;;;;;;;;;;;;;;;20.00;49.36;101667.06;4849388;28;123390;-73
2023/07/14 01:30:14;;;;;;;;;;;;;;;19.97;49.37;101669.97;4849410;28;114640;-73
2023/07/14 01:32:45;;;;;;;;;;;;;;;19.94;49.25;101667.47;4830895;29;113516;-73
2023/07/14 01:35:14;;;;;;;;;;;;;;;19.89;49.46;101658.91;4849910;28;123331;-73
2023/07/14 01:37:42;;;;;;;;;;;;;;;19.87;49.34;101666.19;4849473;28;122656;-73
2023/07/14 01:40:12;;;;;;;;;;;;;;;19.83;49.48;101653.94;4835059;28;115931;-73
2023/07/14 01:42:40;;;;;;;;;;;;;;;19.80;49.47;101654.19;4849640;28;113620;-73
2023/07/14 01:45:12;;;;;;;;;;;;;;;19.77;49.37;101649.00;4838888;29;124418;-73
2023/07/14 01:47:41;;;;;;;;;;;;;;;19.77;49.44;101649.00;4851313;28;122938;-73
2023/07/14 01:50:23;;;;;;;;;;;;;;;19.73;49.48;101652.91;4830994;29;114857;-73
2023/07/14 01:52:52;;;;;;;;;;;;;;;19.72;49.52;101643.06;4849811;28;113077;-73
2023/07/14 01:55:20;;;;;;;;;;;;;;;19.69;49.52;101646.00;4849534;28;124118;-73
2023/07/14 01:57:52;;;;;;;;;;;;;;;19.67;49.70;101647.94;4846157;28;122974;-73
2023/07/14 02:00:20;;;;;;;;;;;;;;;19.67;49.56;101642.56;4849230;28;115816;-73
2023/07/14 02:02:50;;;;;;;;;;;;;;;19.65;49.71;101639.97;4849716;28;112093;-73
2023/07/14 02:05:21;;;;;;;;;;;;;;;19.64;49.78;101641.78;4848614;28;123496;-73
2023/07/14 02:07:48;;;;;;;;;;;;;;;19.65;49.84;101646.19;4835087;29;124413;-73
2023/07/14 02:10:15;;;;;;;;;;;;;;;19.65;49.84;101645.34;4849020;28;113664;-73
2023/07/14 02:12:46;;;;;;;;;;;;;;;19.67;49.72;101647.94;4849528;28;114213;-73
2023/07/14 02:15:18;;;;;;;;;;;;;;;19.67;49.79;101639.88;4835222;29;124608;-73
2023/07/14 02:17:46;;;;;;;;;;;;;;;19.67;49.95;101631.81;4834786;29;124792;-73
2023/07/14 02:20:19;;;;;;;;;;;;;;;19.67;49.95;101637.19;4851850;28;114846;-73
2023/07/14 02:22:47;;;;;;;;;;;;;;;19.65;49.88;101630.06;4837203;29;113580;-73
2023/07/14 02:25:16;;;;;;;;;;;;;;;19.64;49.80;101628.34;4837853;29;124490;-74
2023/07/14 02:27:44;;;;;;;;;;;;;;;19.67;49.84;101631.81;4851530;28;123207;-73
2023/07/14 02:30:12;;;;;;;;;;;;;;;19.68;49.84;101628.13;4852004;28;113484;-73
2023/07/14 02:32:44;;;;;;;;;;;;;;;19.69;49.82;101629.88;4852542;28;113663;-73
2023/07/14 02:35:14;;;;;;;;;;;;;;;19.68;49.77;101628.97;4852423;28;122972;-73
2023/07/14 02:38:06;;;;;;;;;;;;;;;19.68;49.83;101628.13;4829739;29;124077;-73
2023/07/14 02:40:35;;;;;;;;;;;;;;;19.66;49.79;101625.53;4836371;29;115067;-73
2023/07/14 02:43:06;;;;;;;;;;;;;;;19.65;49.88;101624.69;4837957;29;113683;-73
2023/07/14 02:45:35;;;;;;;;;;;;;;;19.64;49.87;101628.34;4852141;28;125124;-73
2023/07/14 02:48:04;;;;;;;;;;;;;;;19.64;49.92;101631.03;4852114;28;124694;-73
2023/07/14 02:50:31;;;;;;;;;;;;;;;19.62;50.08;101630.28;4837603;29;114345;-73
2023/07/14 02:52:58;;;;;;;;;;;;;;;19.62;49.87;101638.34;4836930;29;114053;-73
2023/07/14 02:55:25;;;;;;;;;;;;;;;19.60;49.93;101632.22;4837397;29;125139;-73
2023/07/14 02:57:52;;;;;;;;;;;;;;;19.57;49.89;101627.06;4836282;29;123108;-73
2023/07/14 03:00:19;;;;;;;;;;;;;;;19.56;50.14;101625.34;4837130;29;114937;-73
2023/07/14 03:02:46;;;;;;;;;;;;;;;19.54;50.10;101627.28;4837749;29;114058;-73
2023/07/14 03:05:14;;;;;;;;;;;;;;;19.53;49.91;101625.53;4837720;29;124527;-73
2023/07/14 03:07:41;;;;;;;;;;;;;;;19.53;50.12;101625.53;4837469;29;124077;-73
2023/07/14 03:10:08;;;;;;;;;;;;;;;19.52;49.99;101618.47;4837020;29;114573;-73
2023/07/14 03:12:35;;;;;;;;;;;;;;;19.53;50.14;101620.16;4852072;28;114488;-73
2023/07/14 03:15:04;;;;;;;;;;;;;;;19.53;50.04;101630.91;4836582;29;124536;-73
2023/07/14 03:17:31;;;;;;;;;;;;;;;19.53;50.19;101614.81;4837164;29;123750;-73
2023/07/14 03:19:58;;;;;;;;;;;;;;;19.53;50.20;101609.44;4836591;29;115536;-73
2023/07/14 03:22:30;;;;;;;;;;;;;;;19.53;50.18;101609.44;4836751;29;115004;-73
2023/07/14 03:25:00;;;;;;;;;;;;;;;19.53;50.06;101625.53;4851383;28;123329;-73
2023/07/14 03:27:27;;;;;;;;;;;;;;;19.53;50.22;101620.16;4838175;29;124197;-73
2023/07/14 03:29:54;;;;;;;;;;;;;;;19.52;50.26;101617.63;4850477;28;113462;-73
2023/07/14 03:32:21;;;;;;;;;;;;;;;19.51;50.19;101616.75;4836101;29;113882;-73
2023/07/14 03:34:48;;;;;;;;;;;;;;;19.50;50.06;101608.81;4850231;28;122321;-73
2023/07/14 03:37:15;;;;;;;;;;;;;;;19.48;50.09;101613.41;4836286;29;124262;-71
2023/07/14 03:39:42;;;;;;;;;;;;;;;19.46;50.12;101602.78;4850080;28;113623;-71
2023/07/14 03:42:09;;;;;;;;;;;;;;;19.46;50.29;101602.78;4836738;29;114635;-71
2023/07/14 03:44:36;;;;;;;;;;;;;;;19.46;50.24;101602.78;4837788;29;125187;-70
2023/07/14 03:47:04;;;;;;;;;;;;;;;19.46;50.32;101602.78;4839333;29;124339;-71
2023/07/14 03:49:30;;;;;;;;;;;;;;;19.46;50.23;101592.03;4836479;29;114429;-70
2023/07/14 03:51:57;;;;;;;;;;;;;;;19.45;50.22;101604.59;4850866;28;113240;-71
2023/07/14 03:54:25;;;;;;;;;;;;;;;19.46;50.31;101602.78;4851025;28;124435;-71
2023/07/14 03:56:55;;;;;;;;;;;;;;;19.46;50.35;101602.78;4850839;28;123744;-70
2023/07/14 03:59:23;;;;;;;;;;;;;;;19.45;50.38;101601.06;4835266;29;113515;-70
2023/07/14 04:01:50;;;;;;;;;;;;;;;19.48;50.61;101594.59;4835872;29;112772;-71
2023/07/14 04:04:18;;;;;;;;;;;;;;;19.48;50.34;101600.84;4850697;28;123382;-71
2023/07/14 04:06:45;;;;;;;;;;;;;;;19.50;50.32;101600.75;4836804;29;123567;-71
2023/07/14 04:09:12;;;;;;;;;;;;;;;19.51;50.37;101595.25;4834894;29;114470;-71
2023/07/14 04:11:39;;;;;;;;;;;;;;;19.55;50.35;101591.41;4850896;28;115148;-71
2023/07/14 04:14:06;;;;;;;;;;;;;;;19.56;50.38;101593.09;4836464;29;124944;-71
2023/07/14 04:16:35;;;;;;;;;;;;;;;19.58;50.53;101601.06;4835973;29;124180;-71
2023/07/14 04:19:03;;;;;;;;;;;;;;;19.60;50.45;101594.59;4850823;28;114282;-71
2023/07/14 04:21:30;;;;;;;;;;;;;;;19.62;50.41;101594.50;4836507;29;114056;-71
2023/07/14 04:23:57;;;;;;;;;;;;;;;19.62;50.40;101598.03;4835920;29;124203;-71
2023/07/14 04:26:25;;;;;;;;;;;;;;;19.64;50.53;101596.09;4850847;28;124998;-71
2023/07/14 04:28:53;;;;;;;;;;;;;;;19.65;50.41;101592.44;4835932;29;114650;-71
2023/07/14 04:31:20;;;;;;;;;;;;;;;19.68;50.44;101595.88;4836787;29;113761;-71
2023/07/14 04:33:48;;;;;;;;;;;;;;;19.68;50.62;101585.13;4835525;29;125073;-71
2023/07/14 04:36:15;;;;;;;;;;;;;;;19.70;50.48;101589.41;4850821;28;123927;-70
2023/07/14 04:38:45;;;;;;;;;;;;;;;19.71;50.48;101591.16;4836056;29;114252;-71
2023/07/14 04:41:13;;;;;;;;;;;;;;;19.73;50.51;101593.75;4835945;29;115328;-71
2023/07/14 04:43:40;;;;;;;;;;;;;;;19.75;50.54;101586.44;4848089;28;124313;-71
2023/07/14 04:46:07;;;;;;;;;;;;;;;19.77;50.63;101585.34;4835955;29;123974;-71
2023/07/14 04:48:34;;;;;;;;;;;;;;;19.80;50.50;101589.66;4836162;29;114265;-71
2023/07/14 04:51:01;;;;;;;;;;;;;;;19.83;50.69;101586.75;4836661;29;114086;-71
2023/07/14 04:53:28;;;;;;;;;;;;;;;19.85;50.61;101584.78;4835629;29;124421;-71
2023/07/14 04:55:55;;;;;;;;;;;;;;;19.88;50.76;101592.66;4836267;29;124005;-71
2023/07/14 04:58:22;;;;;;;;;;;;;;;19.90;50.78;101590.72;4836058;29;116212;-71
2023/07/14 05:00:49;;;;;;;;;;;;;;;19.95;50.63;101593.09;4850192;28;115465;-71
2023/07/14 05:03:16;;;;;;;;;;;;;;;19.96;50.63;101590.25;4835332;29;124368;-71
2023/07/14 05:05:43;;;;;;;;;;;;;;;19.99;50.61;101587.34;4850063;28;125366;-71
2023/07/14 05:08:10;;;;;;;;;;;;;;;20.01;50.60;101577.34;4849558;28;114966;-71
2023/07/14 05:10:38;;;;;;;;;;;;;;;20.06;50.82;101574.34;4835022;29;113523;-71
2023/07/14 05:13:06;;;;;;;;;;;;;;;20.10;50.76;101585.69;4835730;29;124116;-71
2023/07/14 05:15:33;;;;;;;;;;;;;;;20.14;50.83;101577.31;4835876;29;124225;-71
2023/07/14 05:18:00;;;;;;;;;;;;;;;20.19;50.84;101576.94;4835907;29;114625;-71
2023/07/14 05:20:28;;;;;;;;;;;;;;;20.23;50.71;101575.78;4835579;29;113700;-69
2023/07/14 05:22:56;;;;;;;;;;;;;;;20.23;50.76;101568.56;4834408;29;124816;-69
2023/07/14 05:25:23;;;;;;;;;;;;;;;20.27;50.82;101577.25;4849609;28;123444;-69
2023/07/14 05:27:50;;;;;;;;;;;;;;;20.30;50.73;101582.38;4834880;29;114368;-69
2023/07/14 05:30:18;;;;;;;;;;;;;;;20.33;50.79;101582.16;4835227;29;114533;-69
2023/07/14 05:32:46;;;;;;;;;;;;;;;20.36;50.75;101576.56;4828694;29;125132;-69
2023/07/14 05:35:13;;;;;;;;;;;;;;;20.39;50.67;101575.47;4835682;29;123792;-71
2023/07/14 05:37:41;;;;;;;;;;;;;;;20.40;50.79;101577.22;4837852;29;114286;-68
2023/07/14 05:40:10;;;;;;;;;;;;;;;20.43;50.83;101575.13;4850114;28;112782;-69
2023/07/14 05:42:38;;;;;;;;;;;;;;;20.49;50.84;101581.00;4849350;28;124602;-69
2023/07/14 05:45:05;;;;;;;;;;;;;;;20.52;50.83;101575.41;4849336;28;123719;-69
2023/07/14 05:47:35;;;;;;;;;;;;;;;20.55;50.86;101577.84;4849821;28;114397;-69
2023/07/14 05:50:02;;;;;;;;;;;;;;;20.60;50.80;101573.88;4834681;29;114474;-69
2023/07/14 05:52:29;;;;;;;;;;;;;;;20.64;50.78;101573.66;4835374;29;124483;-69
2023/07/14 05:54:56;;;;;;;;;;;;;;;20.67;50.91;101579.66;4834354;29;122829;-69
2023/07/14 05:57:23;;;;;;;;;;;;;;;20.73;50.89;101579.19;4838919;29;114499;-69
2023/07/14 05:59:51;;;;;;;;;;;;;;;20.80;50.88;101580.44;4852755;28;112619;-69
2023/07/14 06:02:18;;;;;;;;;;;;;;;20.88;50.95;101562.84;4852581;28;125121;-69
2023/07/14 06:04:45;;;;;;;;;;;;;;;20.94;50.87;101565.06;4838383;29;124060;-70
2023/07/14 06:07:15;;;;;;;;;;;;;;;21.02;50.79;101570.72;4838959;29;114523;-69
2023/07/14 06:09:42;;;;;;;;;;;;;;;21.07;50.73;101565.81;4837802;29;113511;-70
2023/07/14 06:12:10;;;;;;;;;;;;;;;21.16;50.80;101573.19;4849141;28;123091;-70
2023/07/14 06:14:38;;;;;;;;;;;;;;;21.24;50.81;101577.97;4837235;29;124135;-70
2023/07/14 06:17:08;;;;;;;;;;;;;;;21.32;50.84;101575.53;4838459;29;115257;-69
2023/07/14 06:19:36;;;;;;;;;;;;;;;21.39;50.79;101570.50;4852433;28;113777;-69
2023/07/14 06:22:06;;;;;;;;;;;;;;;21.46;50.76;101571.78;4849093;28;125143;-69
2023/07/14 06:24:36;;;;;;;;;;;;;;;21.57;50.74;101571.78;4836840;29;125171;-69
2023/07/14 06:27:05;;;;;;;;;;;;;;;21.66;50.83;101567.50;4848793;28;114412;-69
2023/07/14 06:29:36;;;;;;;;;;;;;;;21.78;50.97;101565.63;4851870;28;113719;-69
2023/07/14 06:32:03;;;;;;;;;;;;;;;21.90;50.84;101564.63;4837857;29;124780;-69
2023/07/14 06:34:30;;;;;;;;;;;;;;;22.02;50.73;101567.28;4838202;29;124918;-70
2023/07/14 06:36:57;;;;;;;;;;;;;;;22.11;50.77;101563.84;4851795;28;115778;-70
2023/07/14 06:39:24;;;;;;;;;;;;;;;22.19;50.71;101558.69;4837994;29;115117;-70
2023/07/14 06:41:52;;;;;;;;;;;;;;;22.25;50.68;101563.59;4852483;28;124771;-70
2023/07/14 06:44:24;;;;;;;;;;;;;;;22.28;50.54;101568.75;4852049;28;123165;-70
2023/07/14 06:46:53;;;;;;;;;;;;;;;22.32;50.55;101564.81;4837576;29;115352;-70
2023/07/14 06:49:20;;;;;;;;;;;;;;;22.36;50.50;101560.00;4837455;29;114584;-70
2023/07/14 06:51:51;;;;;;;;;;;;;;;22.42;50.48;101561.34;4836045;29;123223;-70
2023/07/14 06:54:18;;;;;;;;;;;;;;;22.47;50.58;101561.78;4837362;29;124212;-71
2023/07/14 06:56:45;;;;;;;;;;;;;;;22.55;50.42;101557.47;4837818;29;114606;-69
2023/07/14 06:59:12;;;;;;;;;;;;;;;22.67;50.49;101563.66;4837549;29;113975;-70
2023/07/14 07:01:39;;;;;;;;;;;;;;;22.77;50.44;101563.72;4837075;29;124819;-70
2023/07/14 07:04:06;;;;;;;;;;;;;;;22.85;50.38;101554.97;4837819;29;123999;-69
2023/07/14 07:06:33;;;;;;;;;;;;;;;22.91;50.34;101559.88;4836693;29;114905;-70
2023/07/14 07:09:00;;;;;;;;;;;;;;;22.98;50.22;101555.66;4836386;29;112679;-70
2023/07/14 07:11:27;;;;;;;;;;;;;;;23.04;50.29;101552.44;4837482;29;124178;-70
2023/07/14 07:13:54;;;;;;;;;;;;;;;23.12;50.29;101555.31;4851717;28;124149;-70
2023/07/14 07:16:21;;;;;;;;;;;;;;;23.20;50.32;101556.50;4837510;29;113482;-69
2023/07/14 07:18:48;;;;;;;;;;;;;;;23.26;50.27;101553.25;4837812;29;114126;-69
2023/07/14 07:21:15;;;;;;;;;;;;;;;23.33;50.17;101554.44;4851616;28;125235;-70
2023/07/14 07:23:42;;;;;;;;;;;;;;;23.41;50.36;101546.50;4837058;29;123520;-69
2023/07/14 07:26:09;;;;;;;;;;;;;;;23.52;50.36;101538.28;4834345;29;115526;-70
2023/07/14 07:28:36;;;;;;;;;;;;;;;23.62;50.14;101537.47;4836691;29;114818;-70
2023/07/14 07:31:09;;;;;;;;;;;;;;;23.69;50.19;101536.78;4837422;29;125715;-70
2023/07/14 07:33:36;;;;;;;;;;;;;;;23.76;49.94;101534.38;4851533;28;123001;-70
2023/07/14 07:36:14;;;;;;;;;;;;;;;23.83;50.07;101535.59;4851763;28;114621;-70
2023/07/14 07:38:46;;;;;;;;;;;;;;;23.92;49.89;101533.03;4833991;29;113795;-70
2023/07/14 07:41:14;;;;;;;;;;;;;;;23.97;49.91;101530.75;4833738;29;124351;-70
2023/07/14 07:43:42;;;;;;;;;;;;;;;24.02;50.01;101528.50;4835700;29;124639;-70
2023/07/14 07:46:09;;;;;;;;;;;;;;;24.08;49.69;101527.94;4837430;29;115049;-70
2023/07/14 07:48:36;;;;;;;;;;;;;;;24.12;49.64;101529.34;4836805;29;114209;-69
2023/07/14 07:51:04;;;;;;;;;;;;;;;24.16;49.68;101525.34;4836195;29;123979;-70
2023/07/14 07:53:32;;;;;;;;;;;;;;;24.23;49.73;101526.50;4834641;29;124050;-70
2023/07/14 07:56:00;;;;;;;;;;;;;;;24.32;49.98;101518.53;4842145;28;114478;-70
2023/07/14 07:58:27;;;;;;;;;;;;;;;24.43;50.02;101524.66;4834772;29;113823;-70
2023/07/14 08:00:55;;;;;;;;;;;;;;;24.50;49.60;101516.81;4836156;29;124384;-70
2023/07/14 08:03:22;;;;;;;;;;;;;;;24.58;49.74;101525.13;4850908;28;124938;-70
2023/07/14 08:05:49;;;;;;;;;;;;;;;24.64;49.42;101519.13;4837783;29;114445;-71
2023/07/14 08:08:16;;;;;;;;;;;;;;;24.74;49.52;101508.25;4837922;29;114325;-70
2023/07/14 08:10:45;;;;;;;;;;;;;;;24.84;49.69;101508.25;4850810;28;124218;-71
2023/07/14 08:13:13;;;;;;;;;;;;;;;24.95;49.38;101504.50;4847959;28;124717;-71
2023/07/14 08:15:40;;;;;;;;;;;;;;;24.98;49.30;101505.06;4833329;29;115638;-73
2023/07/14 08:18:07;;;;;;;;;;;;;;;24.97;49.09;101506.06;4835595;29;114478;-71
2023/07/14 08:20:37;;;;;;;;;;;;;;;24.94;48.99;101503.66;4835438;29;124448;-71
2023/07/14 08:23:05;;;;;;;;;;;;;;;24.94;49.06;101511.78;4835275;29;125181;-71
2023/07/14 08:25:32;;;;;;;;;;;;;;;24.94;49.11;101502.78;4835131;29;114614;-71
2023/07/14 08:27:59;;;;;;;;;;;;;;;24.93;48.88;101501.94;4836358;29;114273;-71
2023/07/14 08:30:28;;;;;;;;;;;;;;;24.95;48.85;101510.78;4850047;28;123427;-71
2023/07/14 08:32:55;;;;;;;;;;;;;;;24.98;49.17;101505.06;4836651;29;124017;-71
2023/07/14 08:35:22;;;;;;;;;;;;;;;24.98;48.96;101510.50;4832331;29;113400;-70
2023/07/14 08:37:50;;;;;;;;;;;;;;;25.00;48.99;101518.47;4836406;29;113606;-71
2023/07/14 08:40:20;;;;;;;;;;;;;;;25.07;49.22;101503.31;4835193;29;124389;-72
2023/07/14 08:42:56;;;;;;;;;;;;;;;25.20;48.93;101497.56;4834577;29;122673;-72
2023/07/14 08:45:32;;;;;;;;;;;;;;;25.33;49.10;101500.81;4830910;29;114146;-72
2023/07/14 08:48:05;;;;;;;;;;;;;;;25.39;49.26;101497.53;4838012;29;114260;-73
2023/07/14 08:50:33;;;;;;;;;;;;;;;25.43;48.80;101493.50;4834158;29;124248;-71
2023/07/14 08:53:04;;;;;;;;;;;;;;;25.44;48.59;101495.19;4835419;29;123046;-72
2023/07/14 08:55:36;;;;;;;;;;;;;;;25.49;48.83;101496.63;4835352;29;116294;-74
2023/07/14 08:58:10;;;;;;;;;;;;;;;25.51;48.63;101500.03;4834553;29;113806;-72
2023/07/14 09:00:40;;;;;;;;;;;;;;;25.52;48.58;101491.72;4835549;29;124386;-73
2023/07/14 09:03:19;;;;;;;;;;;;;;;25.54;48.49;101500.59;4835813;29;123884;-74
2023/07/14 09:05:53;;;;;;;;;;;;;;;25.55;48.50;101490.59;4834929;29;115624;-72
2023/07/14 09:08:28;;;;;;;;;;;;;;;25.57;48.39;101494.00;4833213;29;114703;-74
2023/07/14 09:11:01;;;;;;;;;;;;;;;25.54;48.26;101488.88;4835036;29;125031;-74
2023/07/14 09:13:48;;;;;;;;;;;;;;;25.51;48.63;101489.19;4835504;29;123681;-75
2023/07/14 09:16:17;;;;;;;;;;;;;;;25.51;48.25;101494.63;4835479;29;114329;-76
2023/07/14 09:18:51;;;;;;;;;;;;;;;25.45;48.36;101480.66;4835083;29;113850;-75
2023/07/14 09:21:26;;;;;;;;;;;;;;;25.48;48.65;101489.47;4833051;29;124294;-75
2023/07/14 09:24:11;;;;;;;;;;;;;;;25.53;48.79;101476.34;4834419;29;124431;-76
2023/07/14 09:26:43;;;;;;;;;;;;;;;25.62;48.70;101478.13;4849114;28;113584;-75
2023/07/14 09:29:12;;;;;;;;;;;;;;;25.76;49.11;101485.72;4846389;28;114589;-77
2023/07/14 09:31:39;;;;;;;;;;;;;;;25.95;49.04;101483.94;4834971;29;124364;-76
2023/07/14 09:34:25;;;;;;;;;;;;;;;26.08;48.91;101481.69;4835121;29;124491;-75
2023/07/14 09:36:53;;;;;;;;;;;;;;;26.21;48.82;101481.28;4854392;29;114176;-75
2023/07/14 09:39:32;;;;;;;;;;;;;;;26.33;48.74;101468.31;4835112;29;113816;-75
2023/07/14 09:42:00;;;;;;;;;;;;;;;26.46;48.44;101463.31;4833766;29;124318;-76
2023/07/14 09:44:29;;;;;;;;;;;;;;;26.60;48.52;101470.94;4833924;29;124105;-76
2023/07/14 09:46:58;;;;;;;;;;;;;;;26.70;48.27;101459.13;4835571;29;115364;-75
2023/07/14 09:49:38;;;;;;;;;;;;;;;26.79;48.23;101458.16;4833931;29;113419;-75
2023/07/14 09:52:20;;;;;;;;;;;;;;;26.82;48.03;101457.81;4842659;29;124394;-75
2023/07/14 09:54:55;;;;;;;;;;;;;;;26.86;48.01;101461.94;4833976;29;124589;-79
2023/07/14 09:57:24;;;;;;;;;;;;;;;26.93;48.07;101449.41;4834395;29;116432;-75
2023/07/14 10:00:19;;;;;;;;;;;;;;;27.09;48.27;101447.78;4832723;29;115386;-76
2023/07/14 10:03:01;;;;;;;;;;;;;;;27.25;48.34;101442.44;4848847;28;123556;-75
2023/07/14 10:05:41;;;;;;;;;;;;;;;27.38;48.08;101429.22;4830970;29;124513;-74
2023/07/14 10:08:22;;;;;;;;;;;;;;;27.51;48.20;101436.06;4835795;29;114599;-76
2023/07/14 10:10:49;;;;;;;;;;;;;;;27.61;48.16;101431.31;4838863;29;112884;-78
2023/07/14 10:13:28;;;;;;;;;;;;;;;27.68;47.75;101432.38;4830680;29;124660;-76
2023/07/14 10:15:57;;;;;;;;;;;;;;;27.74;48.02;101426.25;4849278;28;124989;-77
2023/07/14 10:18:24;;;;;;;;;;;;;;;27.78;47.84;101424.03;4850061;28;113704;-76
2023/07/14 10:21:11;;;;;;;;;;;;;;;27.84;47.72;101419.78;4835582;29;114277;-77
2023/07/14 10:23:38;;;;;;;;;;;;;;;27.94;47.92;101406.91;4854903;28;124112;-76
2023/07/14 10:26:07;;;;;;;;;;;;;;;28.03;47.74;101403.19;4849532;28;123541;-76
2023/07/14 10:28:35;;;;;;;;;;;;;;;28.10;47.64;101390.56;4837558;29;114252;-78
2023/07/14 10:31:18;;;;;;;;;;;;;;;28.20;47.61;101386.81;4851137;28;114585;-77
2023/07/14 10:33:51;;;;;;;;;;;;;;;28.26;47.38;101380.69;4832478;29;124347;-74
2023/07/14 10:36:21;;;;;;;;;;;;;;;28.29;47.39;101381.19;4833209;29;124236;-76
2023/07/14 10:38:57;;;;;;;;;;;;;;;28.30;47.06;101376.59;4849092;28;113534;-77
2023/07/14 10:41:24;;;;;;;;;;;;;;;28.31;47.13;101384.59;4837942;29;112748;-77
2023/07/14 10:43:57;;;;;;;;;;;;;;;28.33;46.99;101370.78;4852077;28;124461;-76
2023/07/14 10:46:27;;;;;;;;;;;;;;;28.33;46.79;101382.53;4835278;29;124298;-75
2023/07/14 10:49:05;;;;;;;;;;;;;;;28.27;46.94;101372.31;4838331;29;114859;-76
2023/07/14 10:51:40;;;;;;;;;;;;;;;28.20;46.77;101375.91;4835829;29;115200;-75
2023/07/14 10:54:13;;;;;;;;;;;;;;;28.12;46.70;101369.47;4850008;28;123452;-74
2023/07/14 10:56:45;;;;;;;;;;;;;;;28.11;46.88;101367.75;4827319;29;124235;-75
2023/07/14 10:59:21;;;;;;;;;;;;;;;28.14;46.85;101361.97;4837282;29;114374;-75
2023/07/14 11:02:08;;;;;;;;;;;;;;;28.17;46.88;101351.75;4836515;29;113711;-74
2023/07/14 11:04:42;;;;;;;;;;;;;;;28.23;46.86;101348.34;4833172;29;123663;-74
2023/07/14 11:07:15;;;;;;;;;;;;;;;28.28;46.92;101352.25;4830870;29;124228;-74
2023/07/14 11:09:42;;;;;;;;;;;;;;;28.32;46.60;101347.28;4835697;29;114120;-75
2023/07/14 11:12:22;;;;;;;;;;;;;;;28.33;46.64;101343.53;4845789;29;114456;-74
2023/07/14 11:14:56;;;;;;;;;;;;;;;28.38;46.69;101341.16;4848621;28;124742;-75
2023/07/14 11:17:30;;;;;;;;;;;;;;;28.44;46.67;101343.16;4835651;29;124978;-75
2023/07/14 11:20:16;;;;;;;;;;;;;;;28.49;46.79;101345.38;4835315;29;114619;-75
2023/07/14 11:22:49;;;;;;;;;;;;;;;28.54;46.74;101343.88;4835161;29;114899;-75
2023/07/14 11:25:21;;;;;;;;;;;;;;;28.59;46.90;101342.47;4851686;28;124398;-74
2023/07/14 11:27:59;;;;;;;;;;;;;;;28.65;46.67;101336.31;4832866;29;123970;-75
2023/07/14 11:30:34;;;;;;;;;;;;;;;28.67;46.38;101339.72;4836156;29;115107;-75
2023/07/14 11:33:14;;;;;;;;;;;;;;;28.65;46.51;101328.16;4836536;29;113597;-75
2023/07/14 11:35:49;;;;;;;;;;;;;;;28.62;46.43;101323.06;4834322;29;124396;-75
2023/07/14 11:38:25;;;;;;;;;;;;;;;28.61;46.23;101318.63;4847035;28;123456;-75
2023/07/14 11:40:53;;;;;;;;;;;;;;;28.64;46.19;101315.56;4835786;29;115592;-75
2023/07/14 11:43:21;;;;;;;;;;;;;;;28.68;46.64;101311.44;4835863;29;114813;-75
2023/07/14 11:45:53;;;;;;;;;;;;;;;28.77;46.44;101291.31;4835760;29;124624;-76
2023/07/14 11:48:23;;;;;;;;;;;;;;;28.86;46.29;101267.59;4836613;29;124913;-75
2023/07/14 11:51:04;;;;;;;;;;;;;;;28.92;46.35;101267.69;4837993;29;114526;-75
2023/07/14 11:53:34;;;;;;;;;;;;;;;29.00;46.24;101260.50;4842543;29;113673;-75
2023/07/14 11:56:14;;;;;;;;;;;;;;;29.03;46.19;101265.59;4853663;28;124546;-75
2023/07/14 11:58:43;;;;;;;;;;;;;;;29.08;46.40;101265.88;4847392;29;123453;-76
2023/07/14 12:01:37;;;;;;;;;;;;;;;29.16;45.75;101265.88;4843150;29;114307;-75
2023/07/14 12:04:22;;;;;;;;;;;;;;;29.11;45.40;101260.09;4840362;29;113587;-76
2023/07/14 12:07:09;;;;;;;;;;;;;;;29.11;45.48;101251.91;4849464;28;98531;-75
2023/07/14 12:09:57;;;;;;;;;;;;;;;29.08;45.05;101252.25;4849133;28;124257;-75
2023/07/14 12:12:24;;;;;;;;;;;;;;;29.01;45.27;101248.53;4838353;29;114234;-75
2023/07/14 12:14:52;;;;;;;;;;;;;;;28.97;45.13;101263.56;4842071;29;113571;-76
2023/07/14 12:17:37;;;;;;;;;;;;;;;28.97;45.04;101252.66;4843812;29;124927;-76
2023/07/14 12:20:14;;;;;;;;;;;;;;;29.00;45.01;101252.31;4855051;28;125323;-75
2023/07/14 12:22:43;;;;;;;;;;;;;;;29.02;44.56;101239.34;4834495;29;114484;-75
2023/07/14 12:25:11;;;;;;;;;;;;;;;29.01;44.67;101237.63;4852792;28;114469;-79
2023/07/14 12:27:41;;;;;;;;;;;;;;;29.04;45.00;101232.66;4836285;29;124144;-75
2023/07/14 12:30:19;;;;;;;;;;;;;;;29.14;45.04;101227.03;4833044;29;124680;-75
2023/07/14 12:32:46;;;;;;;;;;;;;;;29.24;45.14;101211.25;4834163;29;115937;-75
2023/07/14 12:35:15;;;;;;;;;;;;;;;29.34;45.11;101210.16;4850146;28;114220;-75
2023/07/14 12:37:46;;;;;;;;;;;;;;;29.40;45.20;101210.25;4835423;29;124109;-75
2023/07/14 12:40:14;;;;;;;;;;;;;;;29.49;45.03;101205.56;4850438;28;124272;-75
2023/07/14 12:42:42;;;;;;;;;;;;;;;29.54;44.81;101199.56;4835210;29;115046;-75